NOZ58U ENGM-EHAM
Flight info
| Callsign | NOZ58U |
|---|---|
| Flight time | 1h 37m |
| Altitude | 34000 |
| Route | VIPPA DCT KUGAL DCT EEL DCT BLUFA |
| Aircraft | B738/M-SDE2E3GHIJ1LRWXY/LB1 |
Departure
| Time | 2026-05-07 17:22 |
|---|---|
| Airport | Oslo-Gardermoen International Airport (ENGM) |
Arrival
| Time | 2026-05-07 18:59 |
|---|---|
| Airport | Amsterdam Airport Schiphol (EHAM) |
| Time | Latitude | Longitude | Altitude | Speed | Heading |
|---|---|---|---|---|---|
| 2026-05-07 16:05 | 60.19632 | 11.09952 | 684 ft | 0 kts | 106° |
| 2026-05-07 17:10 | 60.19634 | 11.09937 | 676 ft | 4 kts | 106° |
| 2026-05-07 17:11 | 60.19641 | 11.09885 | 678 ft | 4 kts | 106° |
| 2026-05-07 17:11 | 60.19643 | 11.09870 | 684 ft | 1 kts | 106° |
| 2026-05-07 17:15 | 60.19648 | 11.09880 | 684 ft | 1 kts | 35° |
| 2026-05-07 17:15 | 60.19661 | 11.09870 | 684 ft | 3 kts | 336° |
| 2026-05-07 17:15 | 60.19694 | 11.09834 | 683 ft | 8 kts | 332° |
| 2026-05-07 17:16 | 60.19767 | 11.09801 | 678 ft | 13 kts | 13° |
| 2026-05-07 17:16 | 60.19854 | 11.09850 | 683 ft | 13 kts | 16° |
| 2026-05-07 17:16 | 60.19940 | 11.09900 | 681 ft | 12 kts | 16° |
| 2026-05-07 17:16 | 60.19994 | 11.09851 | 682 ft | 11 kts | 289° |
| 2026-05-07 17:17 | 60.20024 | 11.09641 | 682 ft | 20 kts | 286° |
| 2026-05-07 17:17 | 60.20070 | 11.09326 | 677 ft | 25 kts | 286° |
| 2026-05-07 17:17 | 60.20109 | 11.09047 | 678 ft | 12 kts | 286° |
| 2026-05-07 17:17 | 60.20133 | 11.08915 | 677 ft | 9 kts | 312° |
| 2026-05-07 17:18 | 60.20197 | 11.08915 | 680 ft | 12 kts | 15° |
| 2026-05-07 17:18 | 60.20301 | 11.08975 | 681 ft | 19 kts | 16° |
| 2026-05-07 17:18 | 60.20451 | 11.09061 | 679 ft | 25 kts | 16° |
| 2026-05-07 17:18 | 60.20579 | 11.09135 | 681 ft | 13 kts | 16° |
| 2026-05-07 17:19 | 60.20642 | 11.09095 | 680 ft | 11 kts | 292° |
| 2026-05-07 17:19 | 60.20659 | 11.08969 | 677 ft | 8 kts | 286° |
| 2026-05-07 17:19 | 60.20670 | 11.08894 | 678 ft | 0 kts | 286° |
| 2026-05-07 17:20 | 60.20672 | 11.08878 | 678 ft | 4 kts | 286° |
| 2026-05-07 17:20 | 60.20689 | 11.08759 | 675 ft | 13 kts | 286° |
| 2026-05-07 17:20 | 60.20689 | 11.08637 | 678 ft | 7 kts | 210° |
| 2026-05-07 17:20 | 60.20673 | 11.08628 | 678 ft | 0 kts | 196° |
| 2026-05-07 17:21 | 60.20665 | 11.08623 | 678 ft | 5 kts | 196° |
| 2026-05-07 17:21 | 60.20444 | 11.08496 | 677 ft | 70 kts | 196° |
| 2026-05-07 17:21 | 60.19748 | 11.08094 | 673 ft | 135 kts | 196° |
| 2026-05-07 17:22 | 60.18709 | 11.07478 | 929 ft | 164 kts | 197° |
| 2026-05-07 17:22 | 60.17625 | 11.06790 | 1710 ft | 164 kts | 198° |
| 2026-05-07 17:22 | 60.16560 | 11.05936 | 2506 ft | 167 kts | 217° |
| 2026-05-07 17:22 | 60.15944 | 11.03974 | 3239 ft | 169 kts | 252° |
| 2026-05-07 17:23 | 60.15527 | 11.01705 | 3930 ft | 182 kts | 248° |
| 2026-05-07 17:23 | 60.14997 | 10.99230 | 4446 ft | 199 kts | 246° |
| 2026-05-07 17:23 | 60.14410 | 10.96598 | 4821 ft | 218 kts | 246° |
| 2026-05-07 17:23 | 60.13769 | 10.93701 | 5152 ft | 235 kts | 246° |
| 2026-05-07 17:24 | 60.13067 | 10.90574 | 5439 ft | 257 kts | 245° |
| 2026-05-07 17:24 | 60.12289 | 10.87261 | 6173 ft | 265 kts | 242° |
| 2026-05-07 17:24 | 60.11044 | 10.84573 | 7040 ft | 269 kts | 209° |
| 2026-05-07 17:24 | 60.09305 | 10.83182 | 7914 ft | 272 kts | 200° |
| 2026-05-07 17:25 | 60.07499 | 10.81934 | 8849 ft | 276 kts | 200° |
| 2026-05-07 17:25 | 60.05671 | 10.80684 | 9850 ft | 279 kts | 201° |
| 2026-05-07 17:25 | 60.03809 | 10.79396 | 10609 ft | 291 kts | 202° |
| 2026-05-07 17:25 | 60.01816 | 10.77995 | 10851 ft | 317 kts | 202° |
| 2026-05-07 17:26 | 59.99690 | 10.76486 | 11510 ft | 328 kts | 202° |
| 2026-05-07 17:26 | 59.97531 | 10.74947 | 12394 ft | 331 kts | 202° |
| 2026-05-07 17:26 | 59.95356 | 10.73391 | 13341 ft | 333 kts | 202° |
| 2026-05-07 17:26 | 59.93164 | 10.71817 | 14190 ft | 337 kts | 203° |
| 2026-05-07 17:27 | 59.90942 | 10.70217 | 14968 ft | 341 kts | 203° |
| 2026-05-07 17:27 | 59.88697 | 10.68599 | 15738 ft | 345 kts | 204° |
| 2026-05-07 17:27 | 59.86428 | 10.66962 | 16507 ft | 349 kts | 204° |
| 2026-05-07 17:27 | 59.84127 | 10.65302 | 17251 ft | 354 kts | 204° |
| 2026-05-07 17:28 | 59.81831 | 10.63647 | 18006 ft | 357 kts | 205° |
| 2026-05-07 17:28 | 59.79451 | 10.61933 | 18710 ft | 362 kts | 205° |
| 2026-05-07 17:28 | 59.77104 | 10.60247 | 19368 ft | 365 kts | 205° |
| 2026-05-07 17:28 | 59.74705 | 10.58524 | 20038 ft | 369 kts | 205° |
| 2026-05-07 17:29 | 59.72249 | 10.56762 | 20649 ft | 373 kts | 205° |
| 2026-05-07 17:29 | 59.69823 | 10.55026 | 21269 ft | 377 kts | 205° |
| 2026-05-07 17:29 | 59.67345 | 10.53255 | 21898 ft | 380 kts | 205° |
| 2026-05-07 17:29 | 59.64844 | 10.51471 | 22506 ft | 384 kts | 205° |
| 2026-05-07 17:30 | 59.62318 | 10.49671 | 23129 ft | 388 kts | 206° |
| 2026-05-07 17:30 | 59.59762 | 10.47854 | 23729 ft | 392 kts | 206° |
| 2026-05-07 17:30 | 59.57188 | 10.46028 | 24208 ft | 395 kts | 206° |
| 2026-05-07 17:30 | 59.54594 | 10.44192 | 24730 ft | 397 kts | 206° |
| 2026-05-07 17:31 | 59.51984 | 10.42346 | 25228 ft | 400 kts | 206° |
| 2026-05-07 17:31 | 59.49356 | 10.40491 | 25706 ft | 403 kts | 206° |
| 2026-05-07 17:31 | 59.46711 | 10.38625 | 26129 ft | 405 kts | 206° |
| 2026-05-07 17:31 | 59.44047 | 10.36747 | 26539 ft | 409 kts | 206° |
| 2026-05-07 17:32 | 59.41356 | 10.34854 | 26977 ft | 412 kts | 206° |
| 2026-05-07 17:32 | 59.38638 | 10.32947 | 27442 ft | 415 kts | 206° |
| 2026-05-07 17:32 | 59.35918 | 10.31042 | 27885 ft | 417 kts | 206° |
| 2026-05-07 17:32 | 59.34101 | 10.29772 | 28167 ft | 419 kts | 206° |
| 2026-05-07 17:33 | 59.30418 | 10.27201 | 28799 ft | 421 kts | 206° |
| 2026-05-07 17:33 | 59.27670 | 10.25290 | 29426 ft | 418 kts | 206° |
| 2026-05-07 17:33 | 59.24939 | 10.23397 | 30076 ft | 415 kts | 206° |
| 2026-05-07 17:33 | 59.22218 | 10.21511 | 30560 ft | 414 kts | 206° |
| 2026-05-07 17:34 | 59.19508 | 10.19632 | 30948 ft | 415 kts | 206° |
| 2026-05-07 17:34 | 59.16778 | 10.17741 | 31309 ft | 416 kts | 205° |
| 2026-05-07 17:34 | 59.14048 | 10.15852 | 31726 ft | 416 kts | 205° |
| 2026-05-07 17:34 | 59.11322 | 10.13972 | 32214 ft | 414 kts | 205° |
| 2026-05-07 17:35 | 59.08607 | 10.12103 | 32679 ft | 413 kts | 206° |
| 2026-05-07 17:35 | 59.05899 | 10.10242 | 33097 ft | 413 kts | 206° |
| 2026-05-07 17:35 | 59.03190 | 10.08382 | 33512 ft | 413 kts | 206° |
| 2026-05-07 17:35 | 59.00483 | 10.06528 | 33940 ft | 412 kts | 206° |
| 2026-05-07 17:36 | 58.97774 | 10.04674 | 34119 ft | 417 kts | 206° |
| 2026-05-07 17:36 | 58.95028 | 10.02793 | 34120 ft | 419 kts | 206° |
| 2026-05-07 17:36 | 58.89562 | 9.99074 | 34116 ft | 413 kts | 205° |
| 2026-05-07 17:37 | 58.84146 | 9.95400 | 34130 ft | 413 kts | 205° |
| 2026-05-07 17:37 | 58.78722 | 9.91727 | 34125 ft | 414 kts | 205° |
| 2026-05-07 17:38 | 58.73283 | 9.88058 | 34127 ft | 415 kts | 205° |
| 2026-05-07 17:38 | 58.67864 | 9.84414 | 34126 ft | 415 kts | 205° |
| 2026-05-07 17:39 | 58.62411 | 9.80761 | 34122 ft | 415 kts | 204° |
| 2026-05-07 17:39 | 58.56950 | 9.77118 | 34124 ft | 416 kts | 204° |
| 2026-05-07 17:40 | 58.51487 | 9.73484 | 34128 ft | 416 kts | 204° |
| 2026-05-07 17:40 | 58.46020 | 9.69856 | 34125 ft | 416 kts | 204° |
| 2026-05-07 17:41 | 58.40544 | 9.66235 | 34123 ft | 417 kts | 204° |
| 2026-05-07 17:41 | 58.35061 | 9.62621 | 34121 ft | 416 kts | 204° |
| 2026-05-07 17:42 | 58.29592 | 9.59028 | 34129 ft | 416 kts | 204° |
| 2026-05-07 17:42 | 58.24126 | 9.55448 | 34128 ft | 416 kts | 204° |
| 2026-05-07 17:43 | 58.18659 | 9.51881 | 34127 ft | 415 kts | 204° |
| 2026-05-07 17:43 | 58.13187 | 9.48324 | 34129 ft | 415 kts | 204° |
| 2026-05-07 17:44 | 58.07725 | 9.44785 | 34122 ft | 414 kts | 203° |
| 2026-05-07 17:44 | 58.02272 | 9.41259 | 34129 ft | 415 kts | 203° |
| 2026-05-07 17:45 | 57.96811 | 9.37740 | 34127 ft | 415 kts | 203° |
| 2026-05-07 17:45 | 57.91334 | 9.34222 | 34125 ft | 416 kts | 203° |
| 2026-05-07 17:46 | 57.85850 | 9.30716 | 34110 ft | 417 kts | 203° |
| 2026-05-07 17:46 | 57.80360 | 9.27212 | 34124 ft | 417 kts | 202° |
| 2026-05-07 17:47 | 57.74861 | 9.23715 | 34127 ft | 417 kts | 202° |
| 2026-05-07 17:47 | 57.69356 | 9.20226 | 34124 ft | 418 kts | 202° |
| 2026-05-07 17:48 | 57.63847 | 9.16746 | 34123 ft | 418 kts | 202° |
| 2026-05-07 17:48 | 57.58371 | 9.13296 | 34106 ft | 418 kts | 201° |
| 2026-05-07 17:49 | 57.52821 | 9.09812 | 34124 ft | 418 kts | 201° |
| 2026-05-07 17:49 | 57.47342 | 9.06384 | 34121 ft | 419 kts | 201° |
| 2026-05-07 17:50 | 57.41817 | 9.02937 | 34120 ft | 419 kts | 201° |
| 2026-05-07 17:50 | 57.36288 | 8.99500 | 34122 ft | 419 kts | 201° |
| 2026-05-07 17:51 | 57.31658 | 8.96629 | 34105 ft | 419 kts | 200° |
| 2026-05-07 17:51 | 57.25231 | 8.92657 | 34118 ft | 419 kts | 200° |
| 2026-05-07 17:52 | 57.20642 | 8.89829 | 34119 ft | 418 kts | 200° |
| 2026-05-07 17:52 | 57.15119 | 8.86436 | 34113 ft | 418 kts | 200° |
| 2026-05-07 17:53 | 57.09608 | 8.83062 | 34111 ft | 417 kts | 200° |
| 2026-05-07 17:53 | 57.04099 | 8.79697 | 34113 ft | 417 kts | 200° |
| 2026-05-07 17:54 | 56.98598 | 8.76351 | 34122 ft | 417 kts | 200° |
| 2026-05-07 17:54 | 56.93095 | 8.73014 | 34113 ft | 417 kts | 200° |
| 2026-05-07 17:55 | 56.87588 | 8.69683 | 34117 ft | 417 kts | 200° |
| 2026-05-07 17:55 | 56.82083 | 8.66364 | 34115 ft | 417 kts | 200° |
| 2026-05-07 17:56 | 56.76571 | 8.63051 | 34119 ft | 417 kts | 199° |
| 2026-05-07 17:56 | 56.71065 | 8.59752 | 34116 ft | 417 kts | 199° |
| 2026-05-07 17:57 | 56.66446 | 8.56994 | 34117 ft | 417 kts | 199° |
| 2026-05-07 17:57 | 56.60043 | 8.53179 | 34119 ft | 417 kts | 199° |
| 2026-05-07 17:58 | 56.54534 | 8.49907 | 34119 ft | 417 kts | 199° |
| 2026-05-07 17:58 | 56.49023 | 8.46645 | 34121 ft | 417 kts | 199° |
| 2026-05-07 17:59 | 56.43510 | 8.43393 | 34124 ft | 417 kts | 199° |
| 2026-05-07 17:59 | 56.37993 | 8.40149 | 34123 ft | 417 kts | 199° |
| 2026-05-07 18:00 | 56.32475 | 8.36911 | 34125 ft | 417 kts | 199° |
| 2026-05-07 18:00 | 56.26951 | 8.33682 | 34123 ft | 417 kts | 199° |
| 2026-05-07 18:01 | 56.21422 | 8.30461 | 34127 ft | 418 kts | 198° |
| 2026-05-07 18:01 | 56.15889 | 8.27246 | 34125 ft | 418 kts | 198° |
| 2026-05-07 18:02 | 56.07581 | 8.22436 | 34125 ft | 419 kts | 198° |
| 2026-05-07 18:03 | 56.02026 | 8.19233 | 34118 ft | 419 kts | 198° |
| 2026-05-07 18:03 | 55.96469 | 8.16038 | 34130 ft | 420 kts | 198° |
| 2026-05-07 18:04 | 55.90906 | 8.12848 | 34124 ft | 421 kts | 198° |
| 2026-05-07 18:04 | 55.85329 | 8.09660 | 34132 ft | 421 kts | 198° |
| 2026-05-07 18:05 | 55.79735 | 8.06476 | 34124 ft | 422 kts | 198° |
| 2026-05-07 18:05 | 55.74143 | 8.03299 | 34131 ft | 422 kts | 198° |
| 2026-05-07 18:06 | 55.68540 | 8.00125 | 34130 ft | 422 kts | 198° |
| 2026-05-07 18:06 | 55.62985 | 7.96989 | 34129 ft | 422 kts | 198° |
| 2026-05-07 18:07 | 55.57404 | 7.93845 | 34127 ft | 421 kts | 198° |
| 2026-05-07 18:07 | 55.51824 | 7.90712 | 34131 ft | 420 kts | 197° |
| 2026-05-07 18:08 | 55.46251 | 7.87593 | 34133 ft | 420 kts | 197° |
| 2026-05-07 18:08 | 55.40682 | 7.84485 | 34127 ft | 420 kts | 197° |
| 2026-05-07 18:09 | 55.35113 | 7.81387 | 34130 ft | 420 kts | 197° |
| 2026-05-07 18:09 | 55.29540 | 7.78295 | 34129 ft | 420 kts | 197° |
| 2026-05-07 18:10 | 55.23965 | 7.75212 | 34125 ft | 420 kts | 197° |
| 2026-05-07 18:10 | 55.18390 | 7.72137 | 34131 ft | 420 kts | 197° |
| 2026-05-07 18:11 | 55.12806 | 7.69067 | 34136 ft | 420 kts | 197° |
| 2026-05-07 18:11 | 55.07226 | 7.66006 | 34128 ft | 421 kts | 197° |
| 2026-05-07 18:12 | 55.01646 | 7.62955 | 34125 ft | 420 kts | 196° |
| 2026-05-07 18:12 | 54.96049 | 7.59908 | 34125 ft | 420 kts | 196° |
| 2026-05-07 18:13 | 54.90497 | 7.56900 | 34124 ft | 419 kts | 196° |
| 2026-05-07 18:13 | 54.84929 | 7.53888 | 34125 ft | 419 kts | 196° |
| 2026-05-07 18:14 | 54.79368 | 7.50890 | 34125 ft | 419 kts | 196° |
| 2026-05-07 18:14 | 54.73794 | 7.47895 | 34119 ft | 419 kts | 195° |
| 2026-05-07 18:15 | 54.68219 | 7.44905 | 34121 ft | 420 kts | 195° |
| 2026-05-07 18:15 | 54.62677 | 7.41942 | 34123 ft | 420 kts | 195° |
| 2026-05-07 18:16 | 54.57062 | 7.38951 | 34124 ft | 421 kts | 195° |
| 2026-05-07 18:16 | 54.51507 | 7.36000 | 34124 ft | 421 kts | 195° |
| 2026-05-07 18:17 | 54.45898 | 7.33028 | 34118 ft | 422 kts | 195° |
| 2026-05-07 18:17 | 54.40283 | 7.30059 | 34120 ft | 423 kts | 195° |
| 2026-05-07 18:18 | 54.34657 | 7.27093 | 34121 ft | 423 kts | 195° |
| 2026-05-07 18:18 | 54.29029 | 7.24136 | 34117 ft | 423 kts | 195° |
| 2026-05-07 18:19 | 54.23394 | 7.21183 | 34121 ft | 423 kts | 194° |
| 2026-05-07 18:19 | 54.17764 | 7.18241 | 34111 ft | 423 kts | 194° |
| 2026-05-07 18:20 | 54.12147 | 7.15314 | 34111 ft | 422 kts | 194° |
| 2026-05-07 18:20 | 54.06536 | 7.12399 | 34111 ft | 421 kts | 194° |
| 2026-05-07 18:21 | 54.00936 | 7.09498 | 34115 ft | 420 kts | 194° |
| 2026-05-07 18:21 | 53.95349 | 7.06612 | 34102 ft | 420 kts | 194° |
| 2026-05-07 18:22 | 53.89762 | 7.03734 | 34108 ft | 419 kts | 194° |
| 2026-05-07 18:22 | 53.84176 | 7.00862 | 33951 ft | 421 kts | 195° |
| 2026-05-07 18:22 | 53.81414 | 6.99210 | 33656 ft | 421 kts | 199° |
| 2026-05-07 18:23 | 53.78704 | 6.97367 | 33382 ft | 417 kts | 200° |
| 2026-05-07 18:23 | 53.76089 | 6.95509 | 33107 ft | 410 kts | 201° |
| 2026-05-07 18:23 | 53.73477 | 6.93644 | 32830 ft | 406 kts | 201° |
| 2026-05-07 18:23 | 53.70881 | 6.91808 | 32563 ft | 403 kts | 201° |
| 2026-05-07 18:24 | 53.68299 | 6.90005 | 32297 ft | 400 kts | 200° |
| 2026-05-07 18:24 | 53.65731 | 6.88230 | 32040 ft | 398 kts | 200° |
| 2026-05-07 18:24 | 53.63210 | 6.86342 | 31665 ft | 397 kts | 208° |
| 2026-05-07 18:24 | 53.60891 | 6.83705 | 31180 ft | 397 kts | 214° |
| 2026-05-07 18:25 | 53.58649 | 6.80988 | 30714 ft | 397 kts | 214° |
| 2026-05-07 18:25 | 53.56409 | 6.78280 | 30282 ft | 396 kts | 214° |
| 2026-05-07 18:25 | 53.54180 | 6.75599 | 29908 ft | 391 kts | 215° |
| 2026-05-07 18:25 | 53.51999 | 6.72992 | 29780 ft | 380 kts | 215° |
| 2026-05-07 18:26 | 53.49847 | 6.70430 | 29269 ft | 379 kts | 213° |
| 2026-05-07 18:26 | 53.47690 | 6.67873 | 28669 ft | 380 kts | 214° |
| 2026-05-07 18:26 | 53.45560 | 6.65356 | 28221 ft | 378 kts | 214° |
| 2026-05-07 18:26 | 53.43422 | 6.62834 | 27833 ft | 374 kts | 214° |
| 2026-05-07 18:27 | 53.41301 | 6.60336 | 27428 ft | 371 kts | 213° |
| 2026-05-07 18:27 | 53.39196 | 6.57861 | 27013 ft | 368 kts | 214° |
| 2026-05-07 18:27 | 53.37102 | 6.55401 | 26594 ft | 366 kts | 214° |
| 2026-05-07 18:27 | 53.35696 | 6.53752 | 26312 ft | 365 kts | 214° |
| 2026-05-07 18:28 | 53.32956 | 6.50540 | 25749 ft | 363 kts | 214° |
| 2026-05-07 18:28 | 53.30884 | 6.48116 | 25292 ft | 362 kts | 214° |
| 2026-05-07 18:28 | 53.28829 | 6.45714 | 24904 ft | 360 kts | 214° |
| 2026-05-07 18:28 | 53.26783 | 6.43322 | 24521 ft | 357 kts | 214° |
| 2026-05-07 18:29 | 53.24753 | 6.40954 | 24144 ft | 355 kts | 214° |
| 2026-05-07 18:29 | 53.22731 | 6.38599 | 23773 ft | 353 kts | 214° |
| 2026-05-07 18:29 | 53.20726 | 6.36267 | 23349 ft | 351 kts | 214° |
| 2026-05-07 18:29 | 53.18727 | 6.33946 | 22944 ft | 349 kts | 214° |
| 2026-05-07 18:30 | 53.16749 | 6.31649 | 22560 ft | 345 kts | 214° |
| 2026-05-07 18:30 | 53.14787 | 6.29373 | 22195 ft | 342 kts | 214° |
| 2026-05-07 18:30 | 53.12841 | 6.27119 | 21824 ft | 339 kts | 214° |
| 2026-05-07 18:30 | 53.10915 | 6.24892 | 21470 ft | 336 kts | 214° |
| 2026-05-07 18:31 | 53.08999 | 6.22679 | 21113 ft | 333 kts | 215° |
| 2026-05-07 18:31 | 53.07107 | 6.20494 | 20765 ft | 331 kts | 215° |
| 2026-05-07 18:31 | 53.05223 | 6.18321 | 20419 ft | 328 kts | 215° |
| 2026-05-07 18:31 | 53.03353 | 6.16168 | 20072 ft | 326 kts | 215° |
| 2026-05-07 18:32 | 53.01495 | 6.14030 | 19730 ft | 323 kts | 215° |
| 2026-05-07 18:32 | 52.99656 | 6.11915 | 19392 ft | 321 kts | 215° |
| 2026-05-07 18:32 | 52.97824 | 6.09812 | 19049 ft | 320 kts | 215° |
| 2026-05-07 18:32 | 52.95990 | 6.07708 | 18722 ft | 321 kts | 215° |
| 2026-05-07 18:33 | 52.94093 | 6.05534 | 18398 ft | 347 kts | 215° |
| 2026-05-07 18:33 | 52.92004 | 6.03143 | 17942 ft | 381 kts | 215° |
| 2026-05-07 18:33 | 52.89793 | 6.00616 | 17485 ft | 389 kts | 215° |
| 2026-05-07 18:33 | 52.87564 | 5.98071 | 17041 ft | 389 kts | 215° |
| 2026-05-07 18:34 | 52.85348 | 5.95544 | 16625 ft | 384 kts | 215° |
| 2026-05-07 18:34 | 52.83158 | 5.93051 | 16216 ft | 381 kts | 215° |
| 2026-05-07 18:34 | 52.80983 | 5.90576 | 15805 ft | 378 kts | 215° |
| 2026-05-07 18:34 | 52.78826 | 5.88125 | 15394 ft | 376 kts | 215° |
| 2026-05-07 18:35 | 52.76674 | 5.85684 | 15012 ft | 374 kts | 215° |
| 2026-05-07 18:35 | 52.74534 | 5.83259 | 14612 ft | 373 kts | 215° |
| 2026-05-07 18:35 | 52.72398 | 5.80841 | 14201 ft | 372 kts | 215° |
| 2026-05-07 18:35 | 52.70273 | 5.78438 | 13817 ft | 370 kts | 215° |
| 2026-05-07 18:36 | 52.68870 | 5.76854 | 13510 ft | 368 kts | 215° |
| 2026-05-07 18:36 | 52.66068 | 5.73693 | 12934 ft | 363 kts | 215° |
| 2026-05-07 18:36 | 52.64686 | 5.72136 | 12666 ft | 363 kts | 215° |
| 2026-05-07 18:36 | 52.62598 | 5.69784 | 12257 ft | 363 kts | 215° |
| 2026-05-07 18:37 | 52.60513 | 5.67440 | 11869 ft | 362 kts | 215° |
| 2026-05-07 18:37 | 52.58440 | 5.65110 | 11464 ft | 361 kts | 215° |
| 2026-05-07 18:37 | 52.56374 | 5.62791 | 11073 ft | 357 kts | 215° |
| 2026-05-07 18:37 | 52.54363 | 5.60538 | 10661 ft | 341 kts | 215° |
| 2026-05-07 18:38 | 52.52453 | 5.58404 | 10284 ft | 324 kts | 215° |
| 2026-05-07 18:38 | 52.50807 | 5.56061 | 10021 ft | 307 kts | 234° |
| 2026-05-07 18:38 | 52.49682 | 5.53189 | 9926 ft | 293 kts | 239° |
| 2026-05-07 18:38 | 52.48656 | 5.50367 | 9796 ft | 283 kts | 240° |
| 2026-05-07 18:39 | 52.47659 | 5.47607 | 9693 ft | 280 kts | 239° |
| 2026-05-07 18:39 | 52.46668 | 5.44874 | 9588 ft | 277 kts | 239° |
| 2026-05-07 18:39 | 52.45682 | 5.42172 | 9481 ft | 275 kts | 239° |
| 2026-05-07 18:39 | 52.44701 | 5.39494 | 9374 ft | 273 kts | 239° |
| 2026-05-07 18:40 | 52.43713 | 5.36808 | 9285 ft | 277 kts | 239° |
| 2026-05-07 18:40 | 52.42709 | 5.34081 | 9178 ft | 282 kts | 238° |
| 2026-05-07 18:40 | 52.41696 | 5.31341 | 9054 ft | 279 kts | 238° |
| 2026-05-07 18:40 | 52.40692 | 5.28639 | 8949 ft | 276 kts | 238° |
| 2026-05-07 18:41 | 52.39710 | 5.25973 | 8851 ft | 273 kts | 238° |
| 2026-05-07 18:41 | 52.38732 | 5.23294 | 8756 ft | 275 kts | 238° |
| 2026-05-07 18:41 | 52.37742 | 5.20603 | 8681 ft | 277 kts | 238° |
| 2026-05-07 18:41 | 52.36747 | 5.17903 | 8611 ft | 278 kts | 238° |
| 2026-05-07 18:42 | 52.35751 | 5.15198 | 8541 ft | 277 kts | 238° |
| 2026-05-07 18:42 | 52.34760 | 5.12496 | 8421 ft | 277 kts | 238° |
| 2026-05-07 18:42 | 52.33769 | 5.09792 | 8246 ft | 279 kts | 238° |
| 2026-05-07 18:42 | 52.32764 | 5.07059 | 7985 ft | 282 kts | 236° |
| 2026-05-07 18:43 | 52.31504 | 5.04631 | 7724 ft | 278 kts | 224° |
| 2026-05-07 18:43 | 52.30125 | 5.02470 | 7511 ft | 272 kts | 223° |
| 2026-05-07 18:43 | 52.28767 | 5.00380 | 7302 ft | 267 kts | 223° |
| 2026-05-07 18:43 | 52.27417 | 4.98308 | 7104 ft | 265 kts | 222° |
| 2026-05-07 18:44 | 52.26080 | 4.96250 | 6895 ft | 264 kts | 223° |
| 2026-05-07 18:44 | 52.24750 | 4.94204 | 6709 ft | 262 kts | 222° |
| 2026-05-07 18:44 | 52.23419 | 4.92161 | 6503 ft | 263 kts | 223° |
| 2026-05-07 18:44 | 52.22083 | 4.90117 | 6214 ft | 265 kts | 222° |
| 2026-05-07 18:45 | 52.20735 | 4.88054 | 5891 ft | 267 kts | 222° |
| 2026-05-07 18:45 | 52.19371 | 4.85960 | 5586 ft | 264 kts | 222° |
| 2026-05-07 18:45 | 52.18082 | 4.83975 | 5422 ft | 251 kts | 222° |
| 2026-05-07 18:45 | 52.16856 | 4.82075 | 5286 ft | 236 kts | 222° |
| 2026-05-07 18:46 | 52.15687 | 4.80255 | 5018 ft | 232 kts | 223° |
| 2026-05-07 18:46 | 52.14514 | 4.78439 | 4749 ft | 232 kts | 222° |
| 2026-05-07 18:46 | 52.13352 | 4.76628 | 4497 ft | 232 kts | 223° |
| 2026-05-07 18:46 | 52.12191 | 4.74812 | 4243 ft | 231 kts | 222° |
| 2026-05-07 18:47 | 52.11040 | 4.72999 | 3982 ft | 230 kts | 222° |
| 2026-05-07 18:47 | 52.09886 | 4.71181 | 3728 ft | 230 kts | 223° |
| 2026-05-07 18:47 | 52.08749 | 4.69395 | 3598 ft | 226 kts | 222° |
| 2026-05-07 18:47 | 52.07613 | 4.67612 | 3475 ft | 228 kts | 222° |
| 2026-05-07 18:48 | 52.06458 | 4.65817 | 3362 ft | 232 kts | 223° |
| 2026-05-07 18:48 | 52.05302 | 4.63968 | 3230 ft | 235 kts | 229° |
| 2026-05-07 18:48 | 52.04613 | 4.61591 | 3074 ft | 237 kts | 262° |
| 2026-05-07 18:48 | 52.04720 | 4.58921 | 3030 ft | 239 kts | 281° |
| 2026-05-07 18:49 | 52.05044 | 4.56278 | 3006 ft | 237 kts | 282° |
| 2026-05-07 18:49 | 52.05377 | 4.53666 | 3004 ft | 236 kts | 282° |
| 2026-05-07 18:49 | 52.05712 | 4.51074 | 3010 ft | 230 kts | 282° |
| 2026-05-07 18:49 | 52.06033 | 4.48622 | 3008 ft | 214 kts | 282° |
| 2026-05-07 18:50 | 52.06332 | 4.46346 | 2975 ft | 198 kts | 282° |
| 2026-05-07 18:50 | 52.06615 | 4.44189 | 3000 ft | 195 kts | 282° |
| 2026-05-07 18:50 | 52.06899 | 4.42035 | 3001 ft | 195 kts | 282° |
| 2026-05-07 18:50 | 52.07178 | 4.39889 | 3002 ft | 194 kts | 282° |
| 2026-05-07 18:51 | 52.07457 | 4.37747 | 3006 ft | 193 kts | 282° |
| 2026-05-07 18:51 | 52.07734 | 4.35609 | 3003 ft | 194 kts | 282° |
| 2026-05-07 18:51 | 52.08110 | 4.33515 | 2992 ft | 194 kts | 302° |
| 2026-05-07 18:51 | 52.09097 | 4.32133 | 3007 ft | 187 kts | 343° |
| 2026-05-07 18:52 | 52.10360 | 4.31715 | 2997 ft | 185 kts | 4° |
| 2026-05-07 18:52 | 52.11563 | 4.32311 | 3021 ft | 181 kts | 30° |
| 2026-05-07 18:52 | 52.12663 | 4.33318 | 3012 ft | 182 kts | 32° |
| 2026-05-07 18:52 | 52.13692 | 4.34500 | 2995 ft | 181 kts | 51° |
| 2026-05-07 18:53 | 52.14448 | 4.36126 | 3017 ft | 180 kts | 56° |
| 2026-05-07 18:53 | 52.15161 | 4.37814 | 3016 ft | 181 kts | 58° |
| 2026-05-07 18:53 | 52.15852 | 4.39548 | 3013 ft | 184 kts | 59° |
| 2026-05-07 18:53 | 52.16539 | 4.41318 | 3007 ft | 185 kts | 59° |
| 2026-05-07 18:54 | 52.17222 | 4.43102 | 3011 ft | 186 kts | 59° |
| 2026-05-07 18:54 | 52.17898 | 4.44876 | 2997 ft | 183 kts | 59° |
| 2026-05-07 18:54 | 52.18560 | 4.46614 | 2993 ft | 180 kts | 59° |
| 2026-05-07 18:54 | 52.19219 | 4.48348 | 3004 ft | 180 kts | 59° |
| 2026-05-07 18:55 | 52.19883 | 4.50091 | 3013 ft | 180 kts | 60° |
| 2026-05-07 18:55 | 52.20544 | 4.51826 | 3012 ft | 180 kts | 59° |
| 2026-05-07 18:55 | 52.21212 | 4.53579 | 2871 ft | 185 kts | 59° |
| 2026-05-07 18:55 | 52.21891 | 4.55359 | 2641 ft | 184 kts | 59° |
| 2026-05-07 18:56 | 52.22564 | 4.57122 | 2386 ft | 181 kts | 59° |
| 2026-05-07 18:56 | 52.23221 | 4.58844 | 2137 ft | 177 kts | 59° |
| 2026-05-07 18:56 | 52.23865 | 4.60530 | 1899 ft | 172 kts | 59° |
| 2026-05-07 18:56 | 52.24477 | 4.62132 | 1676 ft | 160 kts | 59° |
| 2026-05-07 18:57 | 52.25047 | 4.63622 | 1451 ft | 153 kts | 59° |
| 2026-05-07 18:57 | 52.25605 | 4.65084 | 1276 ft | 148 kts | 58° |
| 2026-05-07 18:57 | 52.26131 | 4.66459 | 1040 ft | 137 kts | 58° |
| 2026-05-07 18:57 | 52.26622 | 4.67742 | 854 ft | 132 kts | 58° |
| 2026-05-07 18:58 | 52.27110 | 4.69024 | 679 ft | 134 kts | 58° |
| 2026-05-07 18:58 | 52.27602 | 4.70315 | 516 ft | 134 kts | 57° |
| 2026-05-07 18:58 | 52.28095 | 4.71603 | 332 ft | 134 kts | 57° |
| 2026-05-07 18:58 | 52.28591 | 4.72895 | 155 ft | 136 kts | 57° |
| 2026-05-07 18:59 | 52.29093 | 4.74195 | 10 ft | 131 kts | 57° |
| 2026-05-07 18:59 | 52.29512 | 4.75286 | -3 ft | 85 kts | 58° |
| 2026-05-07 18:59 | 52.29680 | 4.75702 | -3 ft | 20 kts | 45° |
| 2026-05-07 18:59 | 52.29799 | 4.75819 | -3 ft | 20 kts | 28° |
| 2026-05-07 19:00 | 52.29917 | 4.75924 | -2 ft | 16 kts | 28° |
| 2026-05-07 19:00 | 52.29976 | 4.75973 | -2 ft | 9 kts | 33° |
| 2026-05-07 19:00 | 52.30015 | 4.76049 | -2 ft | 9 kts | 58° |
| 2026-05-07 19:00 | 52.30046 | 4.76131 | -2 ft | 8 kts | 58° |
| 2026-05-07 19:01 | 52.30077 | 4.76211 | -2 ft | 9 kts | 58° |
| 2026-05-07 19:01 | 52.30117 | 4.76314 | -2 ft | 15 kts | 58° |
| 2026-05-07 19:01 | 52.30191 | 4.76506 | -2 ft | 25 kts | 57° |
| 2026-05-07 19:01 | 52.30292 | 4.76771 | -2 ft | 27 kts | 58° |
| 2026-05-07 19:02 | 52.30391 | 4.77025 | -2 ft | 26 kts | 58° |
| 2026-05-07 19:02 | 52.30481 | 4.77262 | -2 ft | 24 kts | 57° |
| 2026-05-07 19:02 | 52.30557 | 4.77459 | -2 ft | 16 kts | 57° |
| 2026-05-07 19:02 | 52.30625 | 4.77575 | -2 ft | 14 kts | 25° |
| 2026-05-07 19:03 | 52.30728 | 4.77594 | -2 ft | 17 kts | 4° |
| 2026-05-07 19:03 | 52.30860 | 4.77606 | -2 ft | 21 kts | 3° |
| 2026-05-07 19:03 | 52.31020 | 4.77621 | -2 ft | 24 kts | 3° |
| 2026-05-07 19:03 | 52.31180 | 4.77637 | -2 ft | 20 kts | 4° |
| 2026-05-07 19:04 | 52.31246 | 4.77642 | -2 ft | 6 kts | 2° |
| 2026-05-07 19:04 | 52.31304 | 4.77646 | -2 ft | 12 kts | 3° |
| 2026-05-07 19:04 | 52.31410 | 4.77654 | -2 ft | 17 kts | 356° |
| 2026-05-07 19:04 | 52.31512 | 4.77554 | -2 ft | 17 kts | 316° |
| 2026-05-07 19:05 | 52.31572 | 4.77415 | -2 ft | 14 kts | 285° |
| 2026-05-07 19:05 | 52.31574 | 4.77258 | -2 ft | 14 kts | 267° |
| 2026-05-07 19:05 | 52.31568 | 4.77099 | -2 ft | 15 kts | 266° |
| 2026-05-07 19:05 | 52.31562 | 4.76908 | -2 ft | 19 kts | 267° |
| 2026-05-07 19:06 | 52.31553 | 4.76665 | -2 ft | 24 kts | 267° |
| 2026-05-07 19:06 | 52.31533 | 4.76076 | -2 ft | 25 kts | 266° |
| 2026-05-07 19:06 | 52.31523 | 4.75815 | -2 ft | 20 kts | 267° |
| 2026-05-07 19:07 | 52.31517 | 4.75635 | -2 ft | 10 kts | 266° |
| 2026-05-07 19:07 | 52.31515 | 4.75572 | -2 ft | 0 kts | 267° |
| 2026-05-07 19:07 | 52.31515 | 4.75571 | -2 ft | 1 kts | 267° |
| 2026-05-07 19:08 | 52.31513 | 4.75517 | -2 ft | 9 kts | 267° |
| 2026-05-07 19:08 | 52.31457 | 4.75469 | -2 ft | 12 kts | 176° |
| 2026-05-07 19:08 | 52.31370 | 4.75477 | -2 ft | 13 kts | 178° |
| 2026-05-07 19:08 | 52.31280 | 4.75484 | -2 ft | 13 kts | 176° |
| 2026-05-07 19:09 | 52.31192 | 4.75493 | -2 ft | 12 kts | 176° |
| 2026-05-07 19:09 | 52.31119 | 4.75497 | -2 ft | 10 kts | 192° |
| 2026-05-07 19:09 | 52.31076 | 4.75429 | -2 ft | 5 kts | 216° |
| 2026-05-07 19:09 | 52.31043 | 4.75446 | -2 ft | 4 kts | 147° |
| 2026-05-07 19:10 | 52.31032 | 4.75457 | -2 ft | 1 kts | 148° |
| 2026-05-07 19:10 | 52.31028 | 4.75461 | -2 ft | 0 kts | 148° |